Regina International Airport
CYQR : now visible

Airfield :











YOU CAN JOIN US ON...

 
LOGIN :

Register | Disclaimer

   EN    FR    IT 

 









Legend :    VFR   Marginal VFR   IFR   Intensive IFR   Very Intensive IFR
Visi :
Ceiling :
>= 8 km
>= 3000ft
5 to 8 km
1000 to 3000 ft
1500m to 5 km
500 to 1000 ft
800 to 1500m
200 to 500 ft
< 800m
< 200 ft
Symbols :   Thunderstorms  Fog  Heavy snow  Heavy precipitations  Wind > 20 kt






- Airport Elevation : 1894 ft
- IATA code : YQR


CYQR - Regina International

CURRENT METAR :
  • 232328Z 13016KT 3/8SM R13/3500VP6000FT/D FZFG VV002 M07/M07 A3007 RMK FG8 FROIN SLP225

EXPIRED METARs :
  • 232300Z 13013G19KT 3/8SM R13/2400FT/N FZFG VV002 M06/M07 A3007 RMK FG8 SLP223
  • 232200Z 13013KT 1/4SM R13/1600V2400FT/N FZFG VV002 M07/M07 A3006 RMK FG8 FROIN SLP222
  • 232125Z 13012KT 3/8SM R13/2600FT/N FZFG VV002 M07/M07 A3006 RMK FG8 FROIN SLP221
  • 232100Z 13013KT 3/8SM R13/2000FT/N FZFG VV002 M07/M08 A3007 RMK FG8 FROIN SLP222

TAF TAF CYQR
Valid from the 24 at 00:00 until the 25 at 00:00 UTC


232338Z 2400/2424 14015KT 3/8SM FZFG VV002
TEMPO 2400/2412 2SM BR OVC003
FM241200 14015KT P6SM SCT002
TEMPO 2412/2415 2SM BR BKN002
PROB30 2412/2415 1/4SM FZFG VV002
FM241500 14015KT P6SM FEW003 FEW060 SCT220 RMK NXT FCST BY 240600Z



MET'MAP, your aeronautical weather chart ! - Copyright ORBIFLY December 2007 - Disclaimer

ORBIFLY MET'MAP TEAM :

Programming & Development : Alexandra Zaïnal
Concept & original design : Baudouin d'Aumeries
Assistance for programming : Marc-Olivier Méhu
Technical & hardware support : Manuel Goepfert

Contact : metmap@orbifly.com




SOURCES & CREDITS :

   NOAA       Earth
Advisory